Hauptseite
METAR-TAF:

METAR-TAF

Flughäfen :

Flughafen Augsburg

Augsburg, Deutschland

Breite: 48-26N, Länge: 010-56E, Höhe: 461 m

Beobachtung

Neuester Wetterbericht von vor 43 Minuten, um 15:20 UTC
Wind 5 kt aus Nordost, variierte zwischen Nord und Ost/Nordost
Temperatur 19°C
Luftfeuchtigkeit 52%
Luftdruck 1018 hPa
Sichtweite 10 km oder mehr
keine Wolken unter 1500 m und keine Kumulonimbus oder Gewitterwolken

METAR: EDMA 171520Z 04005KT 010V070 CAVOK 19/09 Q1018

Zeit: 18:03 (16:03 UTC)

Prognose

Neuester Wetterbericht von vor 2 Stunden und 3 Minuten, um 14:00 UTC
Gültige Prognose vom 17 um 15 UTC bis 17 um 24 UTC
Wind 5 kt aus Nord/Nordost
Sichtweite 10 km oder mehr
keine Wolken unter 1500 m und keine Kumulonimbus oder Gewitterwolken
Übergehend zu
vom 17 um 19 UTC bis 17 um 21 UTC
Wind 3 kt aus unterschiedlichen Richtungen

TAF: EDMA 171400Z 1715/1724 03005KT CAVOK BECMG 1719/1721 VRB03KT

Wetterbeobachtungen und Prognosen von mehr als 4000 Flughäfen (METAR und TAF Bericht).

Die verfügbaren Stationen werden durch gelbe und rote Markierungen auf der Karte dargestellt.

Führen Sie die Maus auf sie, um den Namen der Station zu sehen.

Darauf klicken, um die Beobachtung von Wetterbeobachtungen und Prognosen zu sehen.

Um die Karte zu ändern : klicken Sie auf den grünen Tasten mit einem schwarzen Kreuz Zum Vergrößern, auf den grünen Button mit einem Gedankenstrich zu verkleinern, oder auf die grünen Pfeile für benachbarte Karten.


METAR-TAF: